Skip to main content

NOAA/GLERL Met Station at Muskegon, MI

Previous 5 days (top of hour only)
See also Previous 3 Hours (2 minute increments)
Jump down to Data
Switch to [English][Metric]
Zoom: Click and drag, Pan: shift-click and drag, Unzoom: double-click, Unzoom All






Note: Speed = mean wind during 2-minute period at top of hour,
Gust = max wind during 2-minute period at top of hour,
Peak = max wind during entire hour.
• See also 5-day windrose plot


NOAA/GLERL Met Station at Muskegon, MI

Previous 5 days (top of hour only)
See also Previous 3 Hours (2 minute increments)
Jump up to Graphs
Switch to [English][Metric]
                  Wind  Wind  Wind   Air   Dew   Rel     Sta   PAR
                   Spd   Gst   Dir  Temp    Pt   Hum    Pres uE/m2/
YYYY-MM-DD   EST   kts   kts   deg     F     F     %   in Hg   sec
2020-01-28 00:00 -99.0 -99.0   -99   0.0   0.0   0.0    0.00     0
2020-01-27 16:00  15.0  16.3   348  35.6  30.0  79.9   29.32  1232
2020-01-27 15:00  13.6  15.9   355  35.2  30.7  83.4   29.31   963
2020-01-27 14:00  16.7  17.9   343  34.9  31.2  86.1   29.31  1996
2020-01-27 13:00  14.6  15.9   347  34.9  30.9  85.1   29.31  1824
2020-01-27 12:00  12.1  14.0   355  33.8  30.2  86.6   29.32   793
2020-01-27 11:00  10.7  13.0   357  34.3  30.3  84.9   29.32  1305
2020-01-27 10:00   8.0   9.3   351  33.4  30.2  87.6   29.30   824
2020-01-27 09:00   7.6   9.1    11  32.7  29.9  89.2   29.29   117
2020-01-27 08:00   6.6   8.7    16  32.0  29.4  89.9   29.28     6
2020-01-27 07:00   6.4   8.2     4  32.2  29.2  88.6   29.26     2
2020-01-27 06:00   4.3   4.7     5  32.2  28.8  87.2   29.25     2
2020-01-27 05:00   5.2   8.2    15  32.4  29.5  88.9   29.24     2
2020-01-27 04:00   4.3   5.4    16  32.2  30.3  92.6   29.24     2
2020-01-27 03:00   4.9   5.4   354  32.7  32.2  97.9   29.24     2
2020-01-27 02:00   4.7   5.8   352  32.5  31.9  97.4   29.23     2
2020-01-27 01:00   9.1  10.3   353  32.5  31.3  95.3   29.24     2
2020-01-27 00:00  13.0  13.6   321  34.0  31.5  90.6   29.24     2
2020-01-26 23:00  11.5  12.2   317  34.0  31.6  90.9   29.23     2
2020-01-26 22:00  10.5  11.1   322  34.0  31.7  91.2   29.23     2
2020-01-26 21:00  10.1  10.9   339  34.0  31.3  89.7   29.23     2
2020-01-26 20:00  11.7  12.4   335  34.0  31.0  88.7   29.22     2
2020-01-26 19:00  13.0  14.4   324  34.3  31.1  87.8   29.23     2
2020-01-26 18:00  13.8  14.6   318  34.3  30.8  86.8   29.21     3
2020-01-26 17:00  15.4  16.5   310  34.3  30.8  86.6   29.21    53
2020-01-26 16:00  17.3  18.7   320  34.5  30.8  86.1   29.21   139
2020-01-26 15:00  16.1  17.9   315  34.5  31.0  86.9   29.20   163
2020-01-26 14:00  16.9  18.3   310  34.5  31.2  87.6   29.20   272
2020-01-26 13:00  16.7  17.7   314  34.7  31.2  87.0   29.21   169
2020-01-26 12:00  16.7  18.7   320  34.7  31.1  86.6   29.22   135
2020-01-26 11:00  15.9  16.9   325  34.7  31.2  86.8   29.22   182
2020-01-26 10:00  13.6  15.9   327  34.5  31.0  86.8   29.21   127
2020-01-26 09:00  13.2  14.2   337  34.0  31.6  90.8   29.21    37
2020-01-26 08:00  15.0  15.9   324  34.0  32.4  93.8   29.21     3
2020-01-26 07:00  17.7  19.1   317  34.0  32.8  95.2   29.20     2
2020-01-26 06:00  15.9  17.3   312  34.3  32.8  94.2   29.20     2
2020-01-26 05:00  13.4  14.4   317  34.5  32.7  92.8   29.20     2
2020-01-26 04:00  17.3  18.5   309  34.7  33.3  94.4   29.20     2
2020-01-26 03:00  12.8  13.2   313  34.9  33.0  92.8   29.20     2
2020-01-26 02:00  12.4  13.6   311  34.7  32.7  92.2   29.19     2
2020-01-26 01:00  12.1  12.4   317  34.7  33.1  93.8   29.19     2
2020-01-26 00:00  12.4  13.0   324  34.5  33.8  97.0   29.19     2
2020-01-25 23:00  11.3  12.1   315  34.5  34.3  99.1   29.18     2
2020-01-25 22:00  14.2  14.8   326  34.5  34.2  98.9   29.18     2
2020-01-25 21:00  12.4  13.2   304  34.3  33.8  97.9   29.18     2
2020-01-25 20:00   8.7   9.1   309  34.2  33.4  97.0   29.18     2
2020-01-25 19:00   9.5  10.1   319  34.2  33.6  97.6   29.16     2
2020-01-25 18:00  12.8  13.6   315  34.3  33.8  97.8   29.16     2
2020-01-25 17:00  11.1  12.1   308  34.5  33.3  95.3   29.14    23
2020-01-25 16:00   8.4   8.9   282  34.5  33.5  96.0   29.14    45
2020-01-25 15:00   8.0   8.0   259  34.3  34.0  98.6   29.13    94
2020-01-25 14:00   9.5  11.1   188  34.0  33.4  97.8   29.13   113
2020-01-25 13:00   6.6   7.2   176  34.2  33.5  97.3   29.14   141
2020-01-25 12:00  11.9  12.4   179  33.8  32.9  96.3   29.16   180
2020-01-25 11:00  10.3  11.7   181  34.3  32.8  94.1   29.16    64
2020-01-25 10:00  10.5  10.7   204  34.7  33.0  93.4   29.15    78
2020-01-25 09:00  11.9  12.4   218  34.3  33.1  95.2   29.14    50
2020-01-25 08:00  11.1  11.9   209  34.3  33.4  96.2   29.14     2
2020-01-25 07:00   7.6   8.9   189  34.5  33.9  97.7   29.13     2
2020-01-25 06:00   9.7  10.1   230  34.3  34.1  99.1   29.13     2
2020-01-25 05:00   9.7  10.1   188  34.2  33.9  99.1   29.13     2
2020-01-25 04:00  10.1  11.1   180  34.7  34.5  99.2   29.13     2
2020-01-25 03:00   5.6   6.8   167  34.3  34.1  99.1   29.14     2
2020-01-25 02:00   5.6   8.4   172  34.5  34.2  98.9   29.14     2
2020-01-25 01:00   5.4   6.8   136  34.0  33.7  98.7   29.14     2
2020-01-25 00:00   7.6   8.0   101  33.3  32.8  98.2   29.15     2
2020-01-24 23:00   6.8   7.8   104  33.3  32.6  97.5   29.16     2
2020-01-24 22:00   6.6   8.2    93  33.4  32.7  97.2   29.16     2
2020-01-24 21:00   8.0   8.7    99  33.6  32.7  96.3   29.17     2
2020-01-24 20:00   6.8   8.4    94  33.8  33.0  96.7   29.18     2
2020-01-24 19:00   7.6   9.7    91  33.3  32.4  96.7   29.18     2
2020-01-24 18:00   8.0   8.9    86  32.7  31.8  96.4   29.19     2
2020-01-24 17:00   7.6   9.1    92  32.5  31.6  96.3   29.20    69
2020-01-24 16:00   7.8   9.9    95  33.4  32.1  94.8   29.22    53
2020-01-24 15:00   9.9  11.9    99  34.3  32.7  93.6   29.22    76
2020-01-24 14:00  10.3  13.0   107  35.4  33.4  92.3   29.24   152
2020-01-24 13:00  11.5  14.2   104  35.4  33.3  91.8   29.26   224
2020-01-24 12:00  12.1  16.5   114  35.8  33.1  89.7   29.29   216
2020-01-24 11:00  12.6  17.7   113  35.8  33.5  91.4   29.31   182
2020-01-24 10:00  12.8  16.7   117  35.1  33.0  92.0   29.32   106
2020-01-24 09:00  12.1  15.4   113  35.1  32.9  91.9   29.32    35
2020-01-24 08:00  14.0  17.9   112  35.6  32.6  88.8   29.32     3
2020-01-24 07:00  15.4  19.8   109  34.5  32.4  92.0   29.32     2
2020-01-24 06:00  14.2  17.1   104  33.8  32.1  93.5   29.34     2
2020-01-24 05:00  10.9  13.2    93  32.9  31.2  93.2   29.36     2
2020-01-24 04:00  11.1  15.7    93  32.9  31.1  93.1   29.38     2
2020-01-24 03:00   8.7  11.3   108  33.3  30.7  90.1   29.41     2
2020-01-24 02:00   7.4   8.6   100  33.4  29.6  85.5   29.43     2
2020-01-24 01:00   9.5  11.7    91  34.0  29.5  83.6   29.43     2
2020-01-24 00:00   8.4  10.5   105  33.6  30.3  87.6   29.44     2
2020-01-23 23:00   8.4  10.1   107  34.0  30.3  86.1   29.44     2
2020-01-23 22:00   8.6   9.7   109  33.4  30.1  87.3   29.46     2
2020-01-23 21:00   7.0   8.6   126  33.4  30.3  88.2   29.47     2
2020-01-23 20:00   5.6   6.6   130  33.8  30.3  87.0   29.47     2
2020-01-23 19:00   6.6   7.4   112  33.3  30.8  90.4   29.47     2
2020-01-23 18:00   6.4   7.4   136  33.4  30.7  89.7   29.46     2
2020-01-23 17:00   5.6   7.0   126  32.9  30.8  92.0   29.46    60
2020-01-23 16:00   5.8   7.8   119  32.7  30.8  92.7   29.46   199
2020-01-23 15:00   5.8   7.2   136  32.2  30.7  94.2   29.46   224
2020-01-23 14:00  11.5  13.8   182  31.8  30.7  95.6   29.47   435
2020-01-23 13:00  12.8  15.9   180  31.6  30.2  94.5   29.48   288
2020-01-23 12:00  13.6  14.8   180  31.6  30.2  94.2   29.49   304
2020-01-23 11:00  14.6  15.7   183  31.3  29.5  93.2   29.49   332
2020-01-23 10:00  10.1  11.3   170  30.4  28.6  93.1   29.49   272
2020-01-23 09:00   8.6   9.9   176  30.4  29.1  94.8   29.49    94
2020-01-23 08:00  15.0  17.1   186  31.6  30.7  96.1   29.49     3
2020-01-23 07:00  16.5  17.9   186  31.1  29.6  94.2   29.49     2
2020-01-23 06:00  17.1  18.1   201  31.5  29.6  92.8   29.48     2
2020-01-23 05:00  14.8  16.1   188  32.2  25.1  75.0   29.48     2
2020-01-23 04:00  13.4  14.8   179  32.5  25.2  74.2   29.48     2
2020-01-23 03:00  14.4  15.6   180  32.7  26.3  76.9   29.50     2
2020-01-23 02:00  16.1  17.7   211  33.8  26.7  74.8   29.50     2
2020-01-23 01:00  14.0  16.5   185  32.2  25.0  74.5   29.50     2
2020-01-23 00:00  14.0  15.6   188  32.5  25.6  75.2   29.51     2
2020-01-22 23:00  15.7  17.1   188  32.7  25.9  75.8   29.51     2
2020-01-22 22:00  17.1  18.3   199  32.5  25.5  74.9   29.52     2
2020-01-22 21:00  17.9  20.2   191  32.2  24.7  73.5   29.53     2
2020-01-22 20:00  21.4  23.1   190  32.4  23.8  70.5   29.55     2
2020-01-22 19:00  16.3  17.9   199  32.7  25.8  75.3   29.54     2